sensor_id;sensor_type;location;lat;lon;timestamp;P1;P2;P0
21358;PMS7003;13506;50.852;20.632;2023-04-21T00:01:37;29.60;25.00;15.00
21358;PMS7003;13506;50.852;20.632;2023-04-21T00:04:05;31.40;29.40;16.80
21358;PMS7003;13506;50.852;20.632;2023-04-21T00:06:34;48.40;42.20;26.60
21358;PMS7003;13506;50.852;20.632;2023-04-21T00:09:02;51.50;44.25;29.00
21358;PMS7003;13506;50.852;20.632;2023-04-21T00:11:30;52.40;39.00;26.60
21358;PMS7003;13506;50.852;20.632;2023-04-21T00:13:58;55.75;42.75;28.00
21358;PMS7003;13506;50.852;20.632;2023-04-21T00:16:26;52.75;43.25;28.25
21358;PMS7003;13506;50.852;20.632;2023-04-21T00:18:55;46.60;41.20;26.20
21358;PMS7003;13506;50.852;20.632;2023-04-21T00:21:23;50.80;42.20;27.80
21358;PMS7003;13506;50.852;20.632;2023-04-21T00:23:51;52.60;42.60;25.80
21358;PMS7003;13506;50.852;20.632;2023-04-21T00:26:19;42.00;35.60;23.00
21358;PMS7003;13506;50.852;20.632;2023-04-21T00:28:49;44.60;41.40;25.40
21358;PMS7003;13506;50.852;20.632;2023-04-21T00:31:17;48.60;41.20;25.00
21358;PMS7003;13506;50.852;20.632;2023-04-21T00:33:45;39.40;35.40;23.40
21358;PMS7003;13506;50.852;20.632;2023-04-21T00:36:14;35.20;27.80;18.20
21358;PMS7003;13506;50.852;20.632;2023-04-21T00:38:42;31.20;25.60;16.80
21358;PMS7003;13506;50.852;20.632;2023-04-21T00:41:10;26.20;24.60;12.40
21358;PMS7003;13506;50.852;20.632;2023-04-21T00:46:30;25.80;23.80;16.20
21358;PMS7003;13506;50.852;20.632;2023-04-21T00:48:58;31.60;24.60;15.00
21358;PMS7003;13506;50.852;20.632;2023-04-21T00:51:30;30.60;22.00;13.40
21358;PMS7003;13506;50.852;20.632;2023-04-21T00:54:00;25.00;22.60;15.00
21358;PMS7003;13506;50.852;20.632;2023-04-21T00:56:30;38.60;28.80;18.80
21358;PMS7003;13506;50.852;20.632;2023-04-21T00:59:00;24.80;22.60;14.60
21358;PMS7003;13506;50.852;20.632;2023-04-21T01:01:29;31.20;26.20;15.80
21358;PMS7003;13506;50.852;20.632;2023-04-21T01:03:59;29.60;24.40;14.80
21358;PMS7003;13506;50.852;20.632;2023-04-21T01:06:30;43.20;38.00;22.40
21358;PMS7003;13506;50.852;20.632;2023-04-21T01:08:59;45.20;38.20;21.80
21358;PMS7003;13506;50.852;20.632;2023-04-21T01:11:29;40.60;34.20;23.60
21358;PMS7003;13506;50.852;20.632;2023-04-21T01:13:57;32.60;29.40;20.20
21358;PMS7003;13506;50.852;20.632;2023-04-21T01:16:25;38.80;33.60;21.00
21358;PMS7003;13506;50.852;20.632;2023-04-21T01:18:54;40.80;35.40;22.60
21358;PMS7003;13506;50.852;20.632;2023-04-21T01:21:22;45.80;39.60;24.40
21358;PMS7003;13506;50.852;20.632;2023-04-21T01:23:51;40.60;33.60;21.80
21358;PMS7003;13506;50.852;20.632;2023-04-21T01:26:19;38.80;35.00;21.00
21358;PMS7003;13506;50.852;20.632;2023-04-21T01:28:48;35.20;28.00;17.00
21358;PMS7003;13506;50.852;20.632;2023-04-21T01:31:16;37.80;32.60;22.00
21358;PMS7003;13506;50.852;20.632;2023-04-21T01:33:45;37.20;31.80;22.00
21358;PMS7003;13506;50.852;20.632;2023-04-21T01:36:15;44.60;40.20;26.80
21358;PMS7003;13506;50.852;20.632;2023-04-21T01:38:43;40.80;36.00;23.80
21358;PMS7003;13506;50.852;20.632;2023-04-21T01:41:13;34.60;31.00;21.20
21358;PMS7003;13506;50.852;20.632;2023-04-21T01:43:41;40.80;39.20;24.60
21358;PMS7003;13506;50.852;20.632;2023-04-21T01:46:08;38.20;38.00;23.00
21358;PMS7003;13506;50.852;20.632;2023-04-21T01:48:37;43.40;36.80;25.20
21358;PMS7003;13506;50.852;20.632;2023-04-21T01:51:05;35.20;32.80;22.80
21358;PMS7003;13506;50.852;20.632;2023-04-21T01:53:33;35.00;32.80;21.00
21358;PMS7003;13506;50.852;20.632;2023-04-21T01:56:01;36.20;33.20;21.60
21358;PMS7003;13506;50.852;20.632;2023-04-21T01:58:31;49.40;35.60;20.00
21358;PMS7003;13506;50.852;20.632;2023-04-21T02:00:59;30.80;28.20;18.00
21358;PMS7003;13506;50.852;20.632;2023-04-21T02:03:27;35.60;31.20;20.60
21358;PMS7003;13506;50.852;20.632;2023-04-21T02:05:55;33.00;27.80;17.40
21358;PMS7003;13506;50.852;20.632;2023-04-21T02:08:23;38.00;28.60;18.00
21358;PMS7003;13506;50.852;20.632;2023-04-21T02:10:51;34.40;33.60;19.60
21358;PMS7003;13506;50.852;20.632;2023-04-21T02:13:19;35.20;28.00;17.20
21358;PMS7003;13506;50.852;20.632;2023-04-21T02:15:48;35.00;29.60;17.80
21358;PMS7003;13506;50.852;20.632;2023-04-21T02:18:17;33.00;28.60;17.40
21358;PMS7003;13506;50.852;20.632;2023-04-21T02:20:46;31.20;30.00;18.80
21358;PMS7003;13506;50.852;20.632;2023-04-21T02:23:14;27.80;27.80;16.60
21358;PMS7003;13506;50.852;20.632;2023-04-21T02:25:41;34.20;31.00;18.80
21358;PMS7003;13506;50.852;20.632;2023-04-21T02:28:11;29.40;26.20;15.40
21358;PMS7003;13506;50.852;20.632;2023-04-21T02:30:39;23.60;23.60;15.40
21358;PMS7003;13506;50.852;20.632;2023-04-21T02:33:08;29.40;27.00;18.00
21358;PMS7003;13506;50.852;20.632;2023-04-21T02:35:36;32.20;26.40;17.20
21358;PMS7003;13506;50.852;20.632;2023-04-21T02:38:05;34.40;27.60;19.00
21358;PMS7003;13506;50.852;20.632;2023-04-21T02:40:33;27.40;27.00;16.60
21358;PMS7003;13506;50.852;20.632;2023-04-21T02:43:01;29.80;27.80;18.00
21358;PMS7003;13506;50.852;20.632;2023-04-21T02:45:30;33.60;26.80;17.80
21358;PMS7003;13506;50.852;20.632;2023-04-21T02:47:58;39.80;35.80;20.40
21358;PMS7003;13506;50.852;20.632;2023-04-21T02:50:27;30.40;27.40;16.40
21358;PMS7003;13506;50.852;20.632;2023-04-21T02:52:55;26.20;25.20;15.20
21358;PMS7003;13506;50.852;20.632;2023-04-21T02:55:23;24.80;24.80;15.60
21358;PMS7003;13506;50.852;20.632;2023-04-21T02:57:52;26.40;24.00;14.00
21358;PMS7003;13506;50.852;20.632;2023-04-21T03:00:21;33.40;25.40;16.80
21358;PMS7003;13506;50.852;20.632;2023-04-21T03:02:50;25.00;24.20;16.80
21358;PMS7003;13506;50.852;20.632;2023-04-21T03:05:18;27.20;22.00;13.80
21358;PMS7003;13506;50.852;20.632;2023-04-21T03:07:48;26.60;23.20;13.80
21358;PMS7003;13506;50.852;20.632;2023-04-21T03:10:16;27.80;25.20;17.00
21358;PMS7003;13506;50.852;20.632;2023-04-21T03:12:46;23.60;23.60;14.60
21358;PMS7003;13506;50.852;20.632;2023-04-21T03:15:13;31.20;26.60;15.20
21358;PMS7003;13506;50.852;20.632;2023-04-21T03:17:41;31.00;26.60;17.00
21358;PMS7003;13506;50.852;20.632;2023-04-21T03:20:09;34.80;33.40;20.80
21358;PMS7003;13506;50.852;20.632;2023-04-21T03:22:38;43.00;36.00;23.60
21358;PMS7003;13506;50.852;20.632;2023-04-21T03:25:07;33.40;30.80;20.80
21358;PMS7003;13506;50.852;20.632;2023-04-21T03:27:36;32.80;29.00;18.00
21358;PMS7003;13506;50.852;20.632;2023-04-21T03:30:05;34.60;32.00;20.60
21358;PMS7003;13506;50.852;20.632;2023-04-21T03:32:34;31.40;27.40;18.40
21358;PMS7003;13506;50.852;20.632;2023-04-21T03:35:02;39.00;34.00;21.00
21358;PMS7003;13506;50.852;20.632;2023-04-21T03:37:30;33.60;30.40;20.00
21358;PMS7003;13506;50.852;20.632;2023-04-21T03:39:59;32.80;30.60;20.00
21358;PMS7003;13506;50.852;20.632;2023-04-21T03:42:28;32.60;30.80;20.20
21358;PMS7003;13506;50.852;20.632;2023-04-21T03:45:00;36.50;34.00;22.25
21358;PMS7003;13506;50.852;20.632;2023-04-21T03:47:32;41.25;39.75;23.50
21358;PMS7003;13506;50.852;20.632;2023-04-21T03:50:01;42.20;36.20;21.20
21358;PMS7003;13506;50.852;20.632;2023-04-21T03:52:30;32.00;23.40;16.40
21358;PMS7003;13506;50.852;20.632;2023-04-21T03:54:59;42.60;36.40;20.80
21358;PMS7003;13506;50.852;20.632;2023-04-21T03:57:28;51.20;41.40;26.80
21358;PMS7003;13506;50.852;20.632;2023-04-21T03:59:56;45.20;41.40;27.20
21358;PMS7003;13506;50.852;20.632;2023-04-21T04:02:24;43.20;38.60;25.80
21358;PMS7003;13506;50.852;20.632;2023-04-21T04:04:52;47.75;38.75;24.25
21358;PMS7003;13506;50.852;20.632;2023-04-21T04:07:20;41.80;37.00;24.60
21358;PMS7003;13506;50.852;20.632;2023-04-21T04:09:48;37.80;34.40;23.20
21358;PMS7003;13506;50.852;20.632;2023-04-21T04:12:17;38.40;33.80;22.20
21358;PMS7003;13506;50.852;20.632;2023-04-21T04:14:46;40.20;35.60;23.60
21358;PMS7003;13506;50.852;20.632;2023-04-21T04:17:14;40.20;39.20;25.20
21358;PMS7003;13506;50.852;20.632;2023-04-21T04:19:42;38.40;37.20;24.60
21358;PMS7003;13506;50.852;20.632;2023-04-21T04:22:10;41.40;34.80;21.80
21358;PMS7003;13506;50.852;20.632;2023-04-21T04:24:37;41.20;38.80;24.40
21358;PMS7003;13506;50.852;20.632;2023-04-21T04:27:06;40.80;37.40;22.60
21358;PMS7003;13506;50.852;20.632;2023-04-21T04:29:34;41.00;39.60;24.80
21358;PMS7003;13506;50.852;20.632;2023-04-21T04:32:04;46.00;42.20;24.00
21358;PMS7003;13506;50.852;20.632;2023-04-21T04:34:33;39.40;33.60;21.40
21358;PMS7003;13506;50.852;20.632;2023-04-21T04:37:02;38.20;32.00;21.60
21358;PMS7003;13506;50.852;20.632;2023-04-21T04:39:31;32.20;25.80;18.00
21358;PMS7003;13506;50.852;20.632;2023-04-21T04:41:59;35.00;32.80;22.00
21358;PMS7003;13506;50.852;20.632;2023-04-21T04:44:28;32.60;27.60;17.20
21358;PMS7003;13506;50.852;20.632;2023-04-21T04:46:56;28.60;26.20;16.80
21358;PMS7003;13506;50.852;20.632;2023-04-21T04:49:25;29.00;27.00;18.00
21358;PMS7003;13506;50.852;20.632;2023-04-21T04:51:54;33.20;29.20;17.80
21358;PMS7003;13506;50.852;20.632;2023-04-21T04:54:21;29.00;28.60;16.40
21358;PMS7003;13506;50.852;20.632;2023-04-21T04:56:50;25.00;24.80;13.60
21358;PMS7003;13506;50.852;20.632;2023-04-21T04:59:18;25.80;25.80;17.40
21358;PMS7003;13506;50.852;20.632;2023-04-21T05:01:46;30.40;28.40;17.00
21358;PMS7003;13506;50.852;20.632;2023-04-21T05:04:13;24.40;22.20;14.20
21358;PMS7003;13506;50.852;20.632;2023-04-21T05:06:43;32.00;26.40;16.20
21358;PMS7003;13506;50.852;20.632;2023-04-21T05:09:11;28.00;25.00;15.40
21358;PMS7003;13506;50.852;20.632;2023-04-21T05:11:39;30.60;27.00;16.00
21358;PMS7003;13506;50.852;20.632;2023-04-21T05:14:07;48.00;44.00;27.50
21358;PMS7003;13506;50.852;20.632;2023-04-21T05:16:35;63.75;49.00;30.75
21358;PMS7003;13506;50.852;20.632;2023-04-21T05:19:02;39.60;33.00;19.40
21358;PMS7003;13506;50.852;20.632;2023-04-21T05:21:31;28.60;26.80;17.20
21358;PMS7003;13506;50.852;20.632;2023-04-21T05:24:00;28.80;24.80;17.40
21358;PMS7003;13506;50.852;20.632;2023-04-21T05:26:28;27.25;21.00;14.00
21358;PMS7003;13506;50.852;20.632;2023-04-21T05:28:56;29.20;29.00;19.60
21358;PMS7003;13506;50.852;20.632;2023-04-21T05:31:24;27.80;24.00;15.80
21358;PMS7003;13506;50.852;20.632;2023-04-21T05:33:52;34.80;28.80;17.20
21358;PMS7003;13506;50.852;20.632;2023-04-21T05:36:20;28.40;26.20;17.00
21358;PMS7003;13506;50.852;20.632;2023-04-21T05:38:49;33.80;28.20;18.00
21358;PMS7003;13506;50.852;20.632;2023-04-21T05:41:20;28.60;26.40;17.40
21358;PMS7003;13506;50.852;20.632;2023-04-21T05:43:48;30.80;27.60;15.00
21358;PMS7003;13506;50.852;20.632;2023-04-21T05:46:16;33.00;26.60;16.60
21358;PMS7003;13506;50.852;20.632;2023-04-21T05:48:44;28.00;27.00;17.20
21358;PMS7003;13506;50.852;20.632;2023-04-21T05:51:12;23.40;21.60;14.60
21358;PMS7003;13506;50.852;20.632;2023-04-21T05:53:41;24.60;19.00;11.00
21358;PMS7003;13506;50.852;20.632;2023-04-21T05:56:10;24.80;21.60;14.00
21358;PMS7003;13506;50.852;20.632;2023-04-21T05:58:40;23.00;19.60;11.60
21358;PMS7003;13506;50.852;20.632;2023-04-21T06:01:08;24.40;21.00;14.00
21358;PMS7003;13506;50.852;20.632;2023-04-21T06:03:37;24.40;21.20;13.80
21358;PMS7003;13506;50.852;20.632;2023-04-21T06:06:05;23.80;21.00;12.40
21358;PMS7003;13506;50.852;20.632;2023-04-21T06:08:33;26.40;21.80;13.00
21358;PMS7003;13506;50.852;20.632;2023-04-21T06:11:02;21.80;18.80;12.40
21358;PMS7003;13506;50.852;20.632;2023-04-21T06:13:30;20.00;18.40;12.00
21358;PMS7003;13506;50.852;20.632;2023-04-21T06:15:59;21.80;20.60;12.80
21358;PMS7003;13506;50.852;20.632;2023-04-21T06:18:27;21.00;20.80;12.80
21358;PMS7003;13506;50.852;20.632;2023-04-21T06:20:55;22.60;20.40;12.60
21358;PMS7003;13506;50.852;20.632;2023-04-21T06:23:23;23.60;20.60;13.40
21358;PMS7003;13506;50.852;20.632;2023-04-21T06:25:58;24.80;22.20;14.20
21358;PMS7003;13506;50.852;20.632;2023-04-21T06:28:29;22.40;20.60;11.40
21358;PMS7003;13506;50.852;20.632;2023-04-21T06:30:58;25.00;21.40;12.80
21358;PMS7003;13506;50.852;20.632;2023-04-21T06:33:27;27.60;21.40;14.00
21358;PMS7003;13506;50.852;20.632;2023-04-21T06:35:56;22.80;20.00;13.00
21358;PMS7003;13506;50.852;20.632;2023-04-21T06:38:24;20.80;19.80;12.20
21358;PMS7003;13506;50.852;20.632;2023-04-21T06:40:52;18.80;15.80;10.40
21358;PMS7003;13506;50.852;20.632;2023-04-21T06:43:19;21.60;20.40;12.60
21358;PMS7003;13506;50.852;20.632;2023-04-21T06:45:47;22.00;19.60;12.20
21358;PMS7003;13506;50.852;20.632;2023-04-21T06:48:17;22.20;19.80;11.60
21358;PMS7003;13506;50.852;20.632;2023-04-21T06:50:45;22.40;20.00;13.20
21358;PMS7003;13506;50.852;20.632;2023-04-21T06:53:13;20.60;19.00;11.60
21358;PMS7003;13506;50.852;20.632;2023-04-21T06:55:42;17.40;16.20;12.20
21358;PMS7003;13506;50.852;20.632;2023-04-21T06:58:10;19.00;17.00;11.00
21358;PMS7003;13506;50.852;20.632;2023-04-21T07:00:38;20.00;20.00;12.00
21358;PMS7003;13506;50.852;20.632;2023-04-21T07:03:06;19.40;18.20;9.40
21358;PMS7003;13506;50.852;20.632;2023-04-21T07:05:36;14.40;12.60;7.80
21358;PMS7003;13506;50.852;20.632;2023-04-21T07:08:03;16.00;15.00;10.00
21358;PMS7003;13506;50.852;20.632;2023-04-21T07:10:32;18.20;14.40;8.80
21358;PMS7003;13506;50.852;20.632;2023-04-21T07:12:59;13.40;13.40;9.00
21358;PMS7003;13506;50.852;20.632;2023-04-21T07:15:27;16.80;16.80;9.80
21358;PMS7003;13506;50.852;20.632;2023-04-21T07:17:55;17.20;16.60;9.00
21358;PMS7003;13506;50.852;20.632;2023-04-21T07:20:24;17.20;14.80;9.60
21358;PMS7003;13506;50.852;20.632;2023-04-21T07:22:53;14.80;14.40;8.40
21358;PMS7003;13506;50.852;20.632;2023-04-21T07:25:21;14.00;12.40;7.00
21358;PMS7003;13506;50.852;20.632;2023-04-21T07:27:49;12.40;11.80;8.40
21358;PMS7003;13506;50.852;20.632;2023-04-21T07:30:17;17.00;13.20;9.00
21358;PMS7003;13506;50.852;20.632;2023-04-21T07:32:45;11.00;11.00;7.00
21358;PMS7003;13506;50.852;20.632;2023-04-21T07:35:13;15.60;11.00;5.60
21358;PMS7003;13506;50.852;20.632;2023-04-21T07:37:41;11.80;11.60;6.00
21358;PMS7003;13506;50.852;20.632;2023-04-21T07:40:11;12.00;10.00;5.40
21358;PMS7003;13506;50.852;20.632;2023-04-21T07:42:39;11.40;10.60;6.80
21358;PMS7003;13506;50.852;20.632;2023-04-21T07:45:08;13.00;13.00;7.00
21358;PMS7003;13506;50.852;20.632;2023-04-21T07:47:36;13.40;11.80;7.00
21358;PMS7003;13506;50.852;20.632;2023-04-21T07:50:05;12.40;11.80;6.80
21358;PMS7003;13506;50.852;20.632;2023-04-21T07:52:33;11.40;11.00;5.40
21358;PMS7003;13506;50.852;20.632;2023-04-21T07:55:02;10.80;9.40;5.00
21358;PMS7003;13506;50.852;20.632;2023-04-21T07:57:31;11.60;11.20;5.00
21358;PMS7003;13506;50.852;20.632;2023-04-21T08:00:03;9.00;8.80;5.00
21358;PMS7003;13506;50.852;20.632;2023-04-21T08:02:37;10.20;10.00;5.00
21358;PMS7003;13506;50.852;20.632;2023-04-21T08:05:05;11.20;11.00;6.20
21358;PMS7003;13506;50.852;20.632;2023-04-21T08:07:34;12.60;12.60;5.20
21358;PMS7003;13506;50.852;20.632;2023-04-21T08:10:02;9.00;9.00;5.00
21358;PMS7003;13506;50.852;20.632;2023-04-21T08:12:32;11.20;10.60;6.20
21358;PMS7003;13506;50.852;20.632;2023-04-21T08:15:00;11.40;11.40;6.40
21358;PMS7003;13506;50.852;20.632;2023-04-21T08:17:32;11.00;11.00;6.00
21358;PMS7003;13506;50.852;20.632;2023-04-21T08:20:00;12.80;12.20;7.00
21358;PMS7003;13506;50.852;20.632;2023-04-21T08:22:28;11.80;9.80;6.00
21358;PMS7003;13506;50.852;20.632;2023-04-21T08:24:57;11.80;10.00;6.80
21358;PMS7003;13506;50.852;20.632;2023-04-21T08:27:24;14.00;12.40;6.00
21358;PMS7003;13506;50.852;20.632;2023-04-21T08:29:54;12.40;11.20;6.00
21358;PMS7003;13506;50.852;20.632;2023-04-21T08:32:22;9.60;9.40;4.80
21358;PMS7003;13506;50.852;20.632;2023-04-21T08:34:51;9.60;8.80;5.20
21358;PMS7003;13506;50.852;20.632;2023-04-21T08:37:19;9.00;9.00;5.00
21358;PMS7003;13506;50.852;20.632;2023-04-21T08:39:47;12.60;11.80;7.00
21358;PMS7003;13506;50.852;20.632;2023-04-21T08:42:16;10.20;10.20;6.80
21358;PMS7003;13506;50.852;20.632;2023-04-21T08:44:45;10.00;9.20;5.80
21358;PMS7003;13506;50.852;20.632;2023-04-21T08:47:14;11.00;11.00;6.80
21358;PMS7003;13506;50.852;20.632;2023-04-21T08:49:43;10.60;10.60;5.20
21358;PMS7003;13506;50.852;20.632;2023-04-21T08:52:11;10.00;10.00;6.20
21358;PMS7003;13506;50.852;20.632;2023-04-21T08:54:40;10.00;10.00;5.80
21358;PMS7003;13506;50.852;20.632;2023-04-21T08:57:08;14.80;11.60;5.60
21358;PMS7003;13506;50.852;20.632;2023-04-21T08:59:36;12.40;11.20;7.00
21358;PMS7003;13506;50.852;20.632;2023-04-21T09:02:07;10.00;9.20;5.20
21358;PMS7003;13506;50.852;20.632;2023-04-21T09:04:38;13.00;10.60;6.60
21358;PMS7003;13506;50.852;20.632;2023-04-21T09:07:07;11.20;10.40;6.00
21358;PMS7003;13506;50.852;20.632;2023-04-21T09:09:50;10.00;9.20;4.80
21358;PMS7003;13506;50.852;20.632;2023-04-21T09:12:19;14.60;13.00;6.20
21358;PMS7003;13506;50.852;20.632;2023-04-21T09:14:48;12.20;10.20;5.80
21358;PMS7003;13506;50.852;20.632;2023-04-21T09:17:16;10.40;10.40;6.00
21358;PMS7003;13506;50.852;20.632;2023-04-21T09:19:48;9.20;8.00;5.00
21358;PMS7003;13506;50.852;20.632;2023-04-21T09:22:17;12.40;11.00;6.00
21358;PMS7003;13506;50.852;20.632;2023-04-21T09:24:45;11.00;10.40;6.20
21358;PMS7003;13506;50.852;20.632;2023-04-21T09:27:14;14.40;12.00;6.40
21358;PMS7003;13506;50.852;20.632;2023-04-21T09:29:46;9.80;9.00;5.00
21358;PMS7003;13506;50.852;20.632;2023-04-21T09:32:17;14.80;14.00;8.20
21358;PMS7003;13506;50.852;20.632;2023-04-21T09:34:45;9.60;9.60;5.20
21358;PMS7003;13506;50.852;20.632;2023-04-21T09:37:14;10.00;9.20;5.00
21358;PMS7003;13506;50.852;20.632;2023-04-21T09:39:45;10.00;10.00;6.20
21358;PMS7003;13506;50.852;20.632;2023-04-21T09:42:13;10.40;9.20;6.00
21358;PMS7003;13506;50.852;20.632;2023-04-21T09:44:41;10.20;10.20;6.60
21358;PMS7003;13506;50.852;20.632;2023-04-21T09:47:09;8.00;8.00;5.00
21358;PMS7003;13506;50.852;20.632;2023-04-21T09:49:38;8.80;8.80;5.80
21358;PMS7003;13506;50.852;20.632;2023-04-21T09:52:09;8.00;8.00;4.60
21358;PMS7003;13506;50.852;20.632;2023-04-21T09:54:42;8.00;7.60;3.80
21358;PMS7003;13506;50.852;20.632;2023-04-21T09:57:18;8.40;7.80;4.00
21358;PMS7003;13506;50.852;20.632;2023-04-21T09:59:53;10.20;8.00;4.20
21358;PMS7003;13506;50.852;20.632;2023-04-21T10:02:25;8.00;8.00;4.60
21358;PMS7003;13506;50.852;20.632;2023-04-21T10:04:56;8.20;8.20;4.60
21358;PMS7003;13506;50.852;20.632;2023-04-21T10:07:25;8.20;7.80;5.00
21358;PMS7003;13506;50.852;20.632;2023-04-21T10:09:54;9.40;8.80;5.40
21358;PMS7003;13506;50.852;20.632;2023-04-21T10:12:25;9.00;8.00;4.00
21358;PMS7003;13506;50.852;20.632;2023-04-21T10:14:54;9.80;8.80;5.20
21358;PMS7003;13506;50.852;20.632;2023-04-21T10:17:23;7.60;7.60;4.00
21358;PMS7003;13506;50.852;20.632;2023-04-21T10:19:52;10.40;9.40;4.00
21358;PMS7003;13506;50.852;20.632;2023-04-21T10:22:26;13.00;10.80;5.80
21358;PMS7003;13506;50.852;20.632;2023-04-21T10:24:57;8.80;8.80;5.40
21358;PMS7003;13506;50.852;20.632;2023-04-21T10:27:31;13.00;9.60;4.80
21358;PMS7003;13506;50.852;20.632;2023-04-21T10:30:01;12.80;9.40;5.40
21358;PMS7003;13506;50.852;20.632;2023-04-21T10:32:43;8.00;8.00;5.60
21358;PMS7003;13506;50.852;20.632;2023-04-21T10:35:12;7.20;7.20;5.00
21358;PMS7003;13506;50.852;20.632;2023-04-21T10:37:41;8.00;7.80;4.20
21358;PMS7003;13506;50.852;20.632;2023-04-21T10:40:33;9.00;8.00;4.40
21358;PMS7003;13506;50.852;20.632;2023-04-21T10:43:01;12.40;9.80;5.00
21358;PMS7003;13506;50.852;20.632;2023-04-21T10:45:30;9.40;9.20;5.00
21358;PMS7003;13506;50.852;20.632;2023-04-21T10:47:58;10.00;9.20;5.00
21358;PMS7003;13506;50.852;20.632;2023-04-21T10:50:28;12.80;8.80;4.80
21358;PMS7003;13506;50.852;20.632;2023-04-21T10:52:57;12.40;9.20;4.60
21358;PMS7003;13506;50.852;20.632;2023-04-21T10:55:36;10.75;8.25;4.75
21358;PMS7003;13506;50.852;20.632;2023-04-21T10:58:07;9.00;9.00;5.00
21358;PMS7003;13506;50.852;20.632;2023-04-21T11:00:36;10.20;9.40;6.00
21358;PMS7003;13506;50.852;20.632;2023-04-21T11:03:04;10.00;10.00;5.60
21358;PMS7003;13506;50.852;20.632;2023-04-21T11:05:34;10.40;9.80;6.00
21358;PMS7003;13506;50.852;20.632;2023-04-21T11:08:05;8.20;8.00;5.00
21358;PMS7003;13506;50.852;20.632;2023-04-21T11:10:47;10.00;9.00;5.20
21358;PMS7003;13506;50.852;20.632;2023-04-21T11:13:21;10.40;9.40;5.00
21358;PMS7003;13506;50.852;20.632;2023-04-21T11:16:00;9.20;8.00;4.80
21358;PMS7003;13506;50.852;20.632;2023-04-21T11:18:31;13.00;10.40;6.00
21358;PMS7003;13506;50.852;20.632;2023-04-21T11:21:10;11.60;10.00;6.00
21358;PMS7003;13506;50.852;20.632;2023-04-21T11:23:49;8.80;8.00;4.60
21358;PMS7003;13506;50.852;20.632;2023-04-21T11:26:29;7.40;7.40;4.40
21358;PMS7003;13506;50.852;20.632;2023-04-21T11:28:59;8.60;7.00;5.00
21358;PMS7003;13506;50.852;20.632;2023-04-21T11:31:28;7.20;6.00;4.00
21358;PMS7003;13506;50.852;20.632;2023-04-21T11:33:57;9.00;7.60;4.20
21358;PMS7003;13506;50.852;20.632;2023-04-21T11:36:26;9.20;8.40;4.40
21358;PMS7003;13506;50.852;20.632;2023-04-21T11:38:55;9.60;9.00;5.00
21358;PMS7003;13506;50.852;20.632;2023-04-21T11:41:23;10.00;9.00;5.00
21358;PMS7003;13506;50.852;20.632;2023-04-21T11:43:52;7.80;7.80;4.00
21358;PMS7003;13506;50.852;20.632;2023-04-21T11:46:21;9.60;7.60;4.20
21358;PMS7003;13506;50.852;20.632;2023-04-21T11:48:57;8.20;7.40;4.60
21358;PMS7003;13506;50.852;20.632;2023-04-21T11:51:26;8.80;8.20;5.00
21358;PMS7003;13506;50.852;20.632;2023-04-21T11:53:59;10.00;9.80;5.20
21358;PMS7003;13506;50.852;20.632;2023-04-21T11:56:29;11.00;8.00;4.40
21358;PMS7003;13506;50.852;20.632;2023-04-21T11:59:04;8.60;7.20;4.00
21358;PMS7003;13506;50.852;20.632;2023-04-21T12:01:33;9.60;7.40;4.00
21358;PMS7003;13506;50.852;20.632;2023-04-21T12:04:12;8.20;8.20;4.00
21358;PMS7003;13506;50.852;20.632;2023-04-21T12:06:41;8.60;8.00;4.20
21358;PMS7003;13506;50.852;20.632;2023-04-21T12:09:15;8.40;8.40;4.40
21358;PMS7003;13506;50.852;20.632;2023-04-21T12:11:46;9.40;8.00;4.40
21358;PMS7003;13506;50.852;20.632;2023-04-21T12:14:17;6.60;6.60;3.60
21358;PMS7003;13506;50.852;20.632;2023-04-21T12:16:47;8.60;8.00;4.00
21358;PMS7003;13506;50.852;20.632;2023-04-21T12:19:22;12.80;12.00;7.00
21358;PMS7003;13506;50.852;20.632;2023-04-21T12:21:51;11.80;10.60;6.00
21358;PMS7003;13506;50.852;20.632;2023-04-21T12:24:20;10.40;8.80;5.80
21358;PMS7003;13506;50.852;20.632;2023-04-21T12:26:48;10.20;10.20;5.00
21358;PMS7003;13506;50.852;20.632;2023-04-21T12:29:18;9.80;9.20;4.60
21358;PMS7003;13506;50.852;20.632;2023-04-21T12:31:46;7.20;6.20;3.60
21358;PMS7003;13506;50.852;20.632;2023-04-21T12:34:13;6.80;6.40;3.80
21358;PMS7003;13506;50.852;20.632;2023-04-21T12:36:41;8.40;7.80;4.00
21358;PMS7003;13506;50.852;20.632;2023-04-21T12:39:09;9.80;8.20;4.00
21358;PMS7003;13506;50.852;20.632;2023-04-21T12:41:38;7.00;7.00;3.80
21358;PMS7003;13506;50.852;20.632;2023-04-21T12:44:06;8.40;6.80;3.80
21358;PMS7003;13506;50.852;20.632;2023-04-21T12:46:36;7.00;5.20;3.00
21358;PMS7003;13506;50.852;20.632;2023-04-21T12:49:04;7.00;7.00;3.80
21358;PMS7003;13506;50.852;20.632;2023-04-21T12:51:32;8.00;7.60;3.60
21358;PMS7003;13506;50.852;20.632;2023-04-21T12:54:00;7.40;7.00;3.60
21358;PMS7003;13506;50.852;20.632;2023-04-21T12:56:28;9.60;8.40;4.80
21358;PMS7003;13506;50.852;20.632;2023-04-21T12:58:56;7.20;7.20;4.00
21358;PMS7003;13506;50.852;20.632;2023-04-21T13:01:24;8.00;7.00;3.80
21358;PMS7003;13506;50.852;20.632;2023-04-21T13:03:53;7.00;7.00;4.00
21358;PMS7003;13506;50.852;20.632;2023-04-21T13:06:21;7.00;6.80;3.00
21358;PMS7003;13506;50.852;20.632;2023-04-21T13:08:49;7.00;7.00;4.20
21358;PMS7003;13506;50.852;20.632;2023-04-21T13:11:17;16.00;13.20;8.40
21358;PMS7003;13506;50.852;20.632;2023-04-21T13:13:45;7.80;7.20;4.00
21358;PMS7003;13506;50.852;20.632;2023-04-21T13:16:14;9.40;8.00;5.00
21358;PMS7003;13506;50.852;20.632;2023-04-21T13:18:43;10.20;7.00;3.80
21358;PMS7003;13506;50.852;20.632;2023-04-21T13:21:13;8.20;8.00;4.60
21358;PMS7003;13506;50.852;20.632;2023-04-21T13:23:41;8.20;7.00;4.00
21358;PMS7003;13506;50.852;20.632;2023-04-21T13:26:09;8.00;7.20;4.00
21358;PMS7003;13506;50.852;20.632;2023-04-21T13:28:37;6.40;6.40;4.20
21358;PMS7003;13506;50.852;20.632;2023-04-21T13:31:05;9.40;7.80;3.80
21358;PMS7003;13506;50.852;20.632;2023-04-21T13:33:33;8.60;8.00;4.00
21358;PMS7003;13506;50.852;20.632;2023-04-21T13:36:01;10.40;8.40;5.00
21358;PMS7003;13506;50.852;20.632;2023-04-21T13:38:31;8.60;8.60;6.00
21358;PMS7003;13506;50.852;20.632;2023-04-21T13:40:59;9.40;7.80;4.00
21358;PMS7003;13506;50.852;20.632;2023-04-21T13:43:27;8.40;8.00;4.60
21358;PMS7003;13506;50.852;20.632;2023-04-21T13:45:56;9.00;7.40;3.40
21358;PMS7003;13506;50.852;20.632;2023-04-21T13:48:24;7.20;7.20;4.20
21358;PMS7003;13506;50.852;20.632;2023-04-21T13:50:54;8.00;8.00;5.00
21358;PMS7003;13506;50.852;20.632;2023-04-21T13:53:22;8.20;7.40;4.00
21358;PMS7003;13506;50.852;20.632;2023-04-21T13:55:51;10.40;9.60;5.80
21358;PMS7003;13506;50.852;20.632;2023-04-21T13:58:21;8.20;7.80;4.00
21358;PMS7003;13506;50.852;20.632;2023-04-21T14:00:49;21.60;19.60;11.60